sensor_id;sensor_type;location;lat;lon;timestamp;pressure;altitude;pressure_sealevel;temperature;humidity
63395;BME280;49531;-34.520;150.798;2023-05-29T00:00:03;100650.44;;;18.27;47.71
63395;BME280;49531;-34.520;150.798;2023-05-29T00:02:34;100654.59;;;18.35;47.80
63395;BME280;49531;-34.520;150.798;2023-05-29T00:05:01;100657.88;;;18.37;47.77
63395;BME280;49531;-34.520;150.798;2023-05-29T00:07:29;100666.28;;;18.40;47.60
63395;BME280;49531;-34.520;150.798;2023-05-29T00:09:57;100649.31;;;18.45;47.55
63395;BME280;49531;-34.520;150.798;2023-05-29T00:12:24;100657.09;;;18.58;47.55
63395;BME280;49531;-34.520;150.798;2023-05-29T00:14:51;100658.72;;;18.59;47.51
63395;BME280;49531;-34.520;150.798;2023-05-29T00:17:18;100663.00;;;18.72;47.25
63395;BME280;49531;-34.520;150.798;2023-05-29T00:19:46;100656.59;;;18.78;46.91
63395;BME280;49531;-34.520;150.798;2023-05-29T00:22:13;100655.25;;;18.80;47.11
63395;BME280;49531;-34.520;150.798;2023-05-29T00:24:41;100644.13;;;18.77;47.16
63395;BME280;49531;-34.520;150.798;2023-05-29T00:27:08;100638.28;;;18.85;47.10
63395;BME280;49531;-34.520;150.798;2023-05-29T00:29:37;100642.38;;;18.87;46.87
63395;BME280;49531;-34.520;150.798;2023-05-29T00:32:05;100640.03;;;18.96;46.65
63395;BME280;49531;-34.520;150.798;2023-05-29T00:34:32;100644.47;;;19.02;46.23
63395;BME280;49531;-34.520;150.798;2023-05-29T00:36:59;100631.56;;;19.09;46.13
63395;BME280;49531;-34.520;150.798;2023-05-29T00:39:27;100637.03;;;19.14;45.82
63395;BME280;49531;-34.520;150.798;2023-05-29T00:41:55;100624.81;;;19.12;45.95
63395;BME280;49531;-34.520;150.798;2023-05-29T00:44:23;100636.00;;;19.20;45.82
63395;BME280;49531;-34.520;150.798;2023-05-29T00:46:52;100635.22;;;19.25;45.59
63395;BME280;49531;-34.520;150.798;2023-05-29T00:49:21;100626.03;;;19.26;45.67
63395;BME280;49531;-34.520;150.798;2023-05-29T00:51:50;100625.84;;;19.32;45.24
63395;BME280;49531;-34.520;150.798;2023-05-29T00:54:21;100622.69;;;19.41;45.02
63395;BME280;49531;-34.520;150.798;2023-05-29T00:56:50;100617.84;;;19.43;44.46
63395;BME280;49531;-34.520;150.798;2023-05-29T00:59:18;100614.31;;;19.42;44.15
63395;BME280;49531;-34.520;150.798;2023-05-29T01:01:49;100614.63;;;19.46;43.95
63395;BME280;49531;-34.520;150.798;2023-05-29T01:04:17;100604.34;;;19.48;43.36
63395;BME280;49531;-34.520;150.798;2023-05-29T01:06:44;100603.25;;;19.49;43.09
63395;BME280;49531;-34.520;150.798;2023-05-29T01:09:11;100591.88;;;19.47;42.93
63395;BME280;49531;-34.520;150.798;2023-05-29T01:12:03;100608.22;;;19.52;42.35
63395;BME280;49531;-34.520;150.798;2023-05-29T01:18:00;100601.75;;;19.58;42.89
63395;BME280;49531;-34.520;150.798;2023-05-29T01:20:40;100582.81;;;19.63;42.77
63395;BME280;49531;-34.520;150.798;2023-05-29T01:26:20;100571.25;;;19.73;42.59
63395;BME280;49531;-34.520;150.798;2023-05-29T01:28:56;100566.59;;;19.68;42.65
63395;BME280;49531;-34.520;150.798;2023-05-29T01:31:26;100569.94;;;19.75;42.66
63395;BME280;49531;-34.520;150.798;2023-05-29T01:33:55;100572.94;;;19.79;42.63
63395;BME280;49531;-34.520;150.798;2023-05-29T01:36:23;100565.09;;;19.82;42.72
63395;BME280;49531;-34.520;150.798;2023-05-29T01:38:52;100562.91;;;19.79;42.46
63395;BME280;49531;-34.520;150.798;2023-05-29T01:41:21;100569.50;;;19.88;42.65
63395;BME280;49531;-34.520;150.798;2023-05-29T01:43:49;100570.81;;;19.86;42.75
63395;BME280;49531;-34.520;150.798;2023-05-29T01:46:18;100543.47;;;19.87;42.63
63395;BME280;49531;-34.520;150.798;2023-05-29T01:48:46;100556.75;;;19.89;42.47
63395;BME280;49531;-34.520;150.798;2023-05-29T01:51:13;100558.19;;;19.96;42.25
63395;BME280;49531;-34.520;150.798;2023-05-29T01:53:41;100567.38;;;20.01;42.11
63395;BME280;49531;-34.520;150.798;2023-05-29T01:56:08;100564.41;;;20.02;41.99
63395;BME280;49531;-34.520;150.798;2023-05-29T01:58:38;100553.31;;;19.98;41.91
63395;BME280;49531;-34.520;150.798;2023-05-29T02:01:06;100548.16;;;20.02;42.02
63395;BME280;49531;-34.520;150.798;2023-05-29T02:03:34;100548.97;;;20.03;42.06
63395;BME280;49531;-34.520;150.798;2023-05-29T02:06:02;100525.09;;;19.99;41.98
63395;BME280;49531;-34.520;150.798;2023-05-29T02:08:29;100537.34;;;20.07;41.75
63395;BME280;49531;-34.520;150.798;2023-05-29T02:10:56;100532.16;;;20.01;41.71
63395;BME280;49531;-34.520;150.798;2023-05-29T02:13:24;100533.28;;;20.10;41.42
63395;BME280;49531;-34.520;150.798;2023-05-29T02:15:51;100536.00;;;20.10;41.44
63395;BME280;49531;-34.520;150.798;2023-05-29T02:18:18;100517.56;;;20.07;41.36
63395;BME280;49531;-34.520;150.798;2023-05-29T02:20:45;100540.88;;;20.08;41.61
63395;BME280;49531;-34.520;150.798;2023-05-29T02:23:13;100541.44;;;20.10;41.51
63395;BME280;49531;-34.520;150.798;2023-05-29T02:25:42;100517.56;;;20.07;41.70
63395;BME280;49531;-34.520;150.798;2023-05-29T02:28:09;100528.13;;;20.08;41.72
63395;BME280;49531;-34.520;150.798;2023-05-29T02:30:36;100518.69;;;20.16;41.58
63395;BME280;49531;-34.520;150.798;2023-05-29T02:33:03;100508.88;;;20.05;41.69
63395;BME280;49531;-34.520;150.798;2023-05-29T02:35:30;100524.38;;;20.14;41.66
63395;BME280;49531;-34.520;150.798;2023-05-29T02:37:57;100528.16;;;20.13;41.71
63395;BME280;49531;-34.520;150.798;2023-05-29T02:40:25;100523.03;;;20.17;41.77
63395;BME280;49531;-34.520;150.798;2023-05-29T02:42:52;100525.78;;;20.22;41.60
63395;BME280;49531;-34.520;150.798;2023-05-29T02:45:19;100513.03;;;20.22;41.52
63395;BME280;49531;-34.520;150.798;2023-05-29T02:47:47;100517.09;;;20.20;41.46
63395;BME280;49531;-34.520;150.798;2023-05-29T02:50:14;100502.16;;;20.17;41.62
63395;BME280;49531;-34.520;150.798;2023-05-29T02:52:41;100502.97;;;20.18;41.67
63395;BME280;49531;-34.520;150.798;2023-05-29T02:55:09;100509.50;;;20.22;41.71
63395;BME280;49531;-34.520;150.798;2023-05-29T02:57:36;100504.91;;;20.22;41.45
63395;BME280;49531;-34.520;150.798;2023-05-29T03:00:03;100519.03;;;20.24;41.39
63395;BME280;49531;-34.520;150.798;2023-05-29T03:02:32;100491.59;;;20.21;41.24
63395;BME280;49531;-34.520;150.798;2023-05-29T03:05:01;100510.63;;;20.26;41.20
63395;BME280;49531;-34.520;150.798;2023-05-29T03:07:28;100512.75;;;20.19;41.27
63395;BME280;49531;-34.520;150.798;2023-05-29T03:09:56;100514.94;;;20.22;40.45
63395;BME280;49531;-34.520;150.798;2023-05-29T03:12:23;100518.75;;;20.26;40.79
63395;BME280;49531;-34.520;150.798;2023-05-29T03:14:51;100505.69;;;20.18;41.08
63395;BME280;49531;-34.520;150.798;2023-05-29T03:17:19;100513.59;;;20.24;40.92
63395;BME280;49531;-34.520;150.798;2023-05-29T03:19:47;100503.78;;;20.18;41.06
63395;BME280;49531;-34.520;150.798;2023-05-29T03:22:14;100516.84;;;20.21;41.05
63395;BME280;49531;-34.520;150.798;2023-05-29T03:24:41;100523.34;;;20.20;41.18
63395;BME280;49531;-34.520;150.798;2023-05-29T03:27:08;100530.66;;;20.20;41.37
63395;BME280;49531;-34.520;150.798;2023-05-29T03:29:36;100521.72;;;20.24;40.91
63395;BME280;49531;-34.520;150.798;2023-05-29T03:32:03;100528.22;;;20.23;40.94
63395;BME280;49531;-34.520;150.798;2023-05-29T03:34:30;100502.91;;;20.08;41.03
63395;BME280;49531;-34.520;150.798;2023-05-29T03:36:58;100528.22;;;20.23;40.79
63395;BME280;49531;-34.520;150.798;2023-05-29T03:39:25;100526.91;;;20.26;40.65
63395;BME280;49531;-34.520;150.798;2023-05-29T03:41:52;100531.47;;;20.20;40.55
63395;BME280;49531;-34.520;150.798;2023-05-29T03:44:19;100526.88;;;20.21;40.57
63395;BME280;49531;-34.520;150.798;2023-05-29T03:46:47;100532.81;;;20.18;40.49
63395;BME280;49531;-34.520;150.798;2023-05-29T03:49:14;100541.81;;;20.28;40.21
63395;BME280;49531;-34.520;150.798;2023-05-29T03:51:41;100541.53;;;20.25;40.14
63395;BME280;49531;-34.520;150.798;2023-05-29T03:54:08;100514.88;;;20.12;39.68
63395;BME280;49531;-34.520;150.798;2023-05-29T03:56:36;100533.13;;;20.26;39.55
63395;BME280;49531;-34.520;150.798;2023-05-29T03:59:03;100549.66;;;20.25;39.44
63395;BME280;49531;-34.520;150.798;2023-05-29T04:01:30;100525.19;;;20.15;39.12
63395;BME280;49531;-34.520;150.798;2023-05-29T04:03:57;100544.25;;;20.25;39.13
63395;BME280;49531;-34.520;150.798;2023-05-29T04:06:24;100553.72;;;20.22;39.29
63395;BME280;49531;-34.520;150.798;2023-05-29T04:08:52;100538.78;;;20.20;39.19
63395;BME280;49531;-34.520;150.798;2023-05-29T04:11:19;100520.59;;;20.15;39.31
63395;BME280;49531;-34.520;150.798;2023-05-29T04:13:49;100527.94;;;20.20;39.16
63395;BME280;49531;-34.520;150.798;2023-05-29T04:16:16;100532.03;;;20.22;39.32
63395;BME280;49531;-34.520;150.798;2023-05-29T04:18:43;100543.16;;;20.26;39.41
63395;BME280;49531;-34.520;150.798;2023-05-29T04:21:11;100532.31;;;20.26;39.53
63395;BME280;49531;-34.520;150.798;2023-05-29T04:23:38;100542.59;;;20.24;39.35
63395;BME280;49531;-34.520;150.798;2023-05-29T04:26:05;100521.91;;;20.08;39.29
63395;BME280;49531;-34.520;150.798;2023-05-29T04:28:32;100539.31;;;20.17;39.65
63395;BME280;49531;-34.520;150.798;2023-05-29T04:30:59;100552.88;;;20.17;39.71
63395;BME280;49531;-34.520;150.798;2023-05-29T04:33:26;100550.19;;;20.22;39.89
63395;BME280;49531;-34.520;150.798;2023-05-29T04:35:55;100546.91;;;20.20;39.68
63395;BME280;49531;-34.520;150.798;2023-05-29T04:38:22;100537.94;;;20.14;39.89
63395;BME280;49531;-34.520;150.798;2023-05-29T04:40:52;100539.88;;;20.19;39.84
63395;BME280;49531;-34.520;150.798;2023-05-29T04:43:24;100539.56;;;20.15;39.70
63395;BME280;49531;-34.520;150.798;2023-05-29T04:45:53;100550.69;;;20.14;39.80
63395;BME280;49531;-34.520;150.798;2023-05-29T04:48:20;100556.91;;;20.14;39.96
63395;BME280;49531;-34.520;150.798;2023-05-29T04:50:48;100566.16;;;20.18;39.88
63395;BME280;49531;-34.520;150.798;2023-05-29T04:53:15;100562.88;;;20.11;39.85
63395;BME280;49531;-34.520;150.798;2023-05-29T04:55:42;100572.66;;;20.17;39.88
63395;BME280;49531;-34.520;150.798;2023-05-29T04:58:09;100574.03;;;20.20;39.74
63395;BME280;49531;-34.520;150.798;2023-05-29T05:00:38;100595.72;;;20.20;39.81
63395;BME280;49531;-34.520;150.798;2023-05-29T05:03:05;100605.50;;;20.21;39.61
63395;BME280;49531;-34.520;150.798;2023-05-29T05:05:32;100602.28;;;20.24;39.58
63395;BME280;49531;-34.520;150.798;2023-05-29T05:07:59;100605.50;;;20.21;39.58
63395;BME280;49531;-34.520;150.798;2023-05-29T05:10:26;100589.16;;;20.11;39.41
63395;BME280;49531;-34.520;150.798;2023-05-29T05:12:53;100593.53;;;20.17;39.40
63395;BME280;49531;-34.520;150.798;2023-05-29T05:15:21;100589.16;;;20.11;39.10
63395;BME280;49531;-34.520;150.798;2023-05-29T05:17:48;100582.97;;;20.15;38.73
63395;BME280;49531;-34.520;150.798;2023-05-29T05:20:16;100597.56;;;20.09;38.66
63395;BME280;49531;-34.520;150.798;2023-05-29T05:22:43;100592.69;;;20.11;38.44
63395;BME280;49531;-34.520;150.798;2023-05-29T05:25:10;100619.81;;;20.11;38.49
63395;BME280;49531;-34.520;150.798;2023-05-29T05:27:38;100605.94;;;20.08;38.60
63395;BME280;49531;-34.520;150.798;2023-05-29T05:30:05;100608.13;;;20.11;38.50
63395;BME280;49531;-34.520;150.798;2023-05-29T05:32:33;100621.75;;;20.16;38.50
63395;BME280;49531;-34.520;150.798;2023-05-29T05:35:00;100615.47;;;20.10;38.71
63395;BME280;49531;-34.520;150.798;2023-05-29T05:37:29;100614.84;;;20.03;38.78
63395;BME280;49531;-34.520;150.798;2023-05-29T05:39:56;100609.50;;;20.13;38.88
63395;BME280;49531;-34.520;150.798;2023-05-29T05:42:26;100611.38;;;20.08;38.95
63395;BME280;49531;-34.520;150.798;2023-05-29T05:44:53;100610.81;;;20.06;38.66
63395;BME280;49531;-34.520;150.798;2023-05-29T05:47:20;100602.38;;;20.02;39.07
63395;BME280;49531;-34.520;150.798;2023-05-29T05:49:48;100625.97;;;20.02;39.15
63395;BME280;49531;-34.520;150.798;2023-05-29T05:52:18;100620.53;;;20.02;38.73
63395;BME280;49531;-34.520;150.798;2023-05-29T05:54:46;100615.13;;;20.02;38.92
63395;BME280;49531;-34.520;150.798;2023-05-29T05:57:13;100595.06;;;20.03;38.56
63395;BME280;49531;-34.520;150.798;2023-05-29T05:59:41;100613.56;;;20.11;38.58
63395;BME280;49531;-34.520;150.798;2023-05-29T06:02:08;100636.84;;;20.07;38.30
63395;BME280;49531;-34.520;150.798;2023-05-29T06:04:35;100631.69;;;20.05;38.22
63395;BME280;49531;-34.520;150.798;2023-05-29T06:07:02;100634.41;;;20.05;38.57
63395;BME280;49531;-34.520;150.798;2023-05-29T06:09:29;100636.25;;;19.99;38.67
63395;BME280;49531;-34.520;150.798;2023-05-29T06:11:56;100619.16;;;19.94;38.38
63395;BME280;49531;-34.520;150.798;2023-05-29T06:14:24;100648.72;;;20.01;38.71
63395;BME280;49531;-34.520;150.798;2023-05-29T06:16:51;100654.75;;;20.08;38.67
63395;BME280;49531;-34.520;150.798;2023-05-29T06:19:19;100649.28;;;20.03;37.64
63395;BME280;49531;-34.520;150.798;2023-05-29T06:21:47;100656.03;;;19.95;38.19
63395;BME280;49531;-34.520;150.798;2023-05-29T06:24:14;100647.63;;;19.96;38.16
63395;BME280;49531;-34.520;150.798;2023-05-29T06:26:41;100652.19;;;19.91;37.59
63395;BME280;49531;-34.520;150.798;2023-05-29T06:29:08;100664.41;;;19.93;38.14
63395;BME280;49531;-34.520;150.798;2023-05-29T06:31:35;100652.50;;;19.94;38.08
63395;BME280;49531;-34.520;150.798;2023-05-29T06:34:02;100661.13;;;19.91;38.00
63395;BME280;49531;-34.520;150.798;2023-05-29T06:36:30;100642.78;;;19.98;37.08
63395;BME280;49531;-34.520;150.798;2023-05-29T06:38:58;100652.19;;;19.91;37.40
63395;BME280;49531;-34.520;150.798;2023-05-29T06:41:25;100645.13;;;19.90;37.94
63395;BME280;49531;-34.520;150.798;2023-05-29T06:43:53;100645.84;;;19.80;38.07
63395;BME280;49531;-34.520;150.798;2023-05-29T06:46:20;100643.03;;;19.70;38.49
63395;BME280;49531;-34.520;150.798;2023-05-29T06:48:47;100649.19;;;19.60;37.89
63395;BME280;49531;-34.520;150.798;2023-05-29T06:51:15;100655.66;;;19.59;38.65
63395;BME280;49531;-34.520;150.798;2023-05-29T06:53:42;100672.78;;;19.65;38.97
63395;BME280;49531;-34.520;150.798;2023-05-29T06:56:10;100673.28;;;19.57;38.14
63395;BME280;49531;-34.520;150.798;2023-05-29T06:58:37;100669.22;;;19.59;38.22
63395;BME280;49531;-34.520;150.798;2023-05-29T07:01:05;100670.00;;;19.55;37.77
63395;BME280;49531;-34.520;150.798;2023-05-29T07:03:33;100670.56;;;19.57;38.15
63395;BME280;49531;-34.520;150.798;2023-05-29T07:06:00;100653.44;;;19.51;38.82
63395;BME280;49531;-34.520;150.798;2023-05-29T07:08:27;100652.28;;;19.47;38.51
63395;BME280;49531;-34.520;150.798;2023-05-29T07:10:55;100668.78;;;19.46;38.45
63395;BME280;49531;-34.520;150.798;2023-05-29T07:13:22;100689.94;;;19.49;38.59
63395;BME280;49531;-34.520;150.798;2023-05-29T07:15:51;100681.25;;;19.47;37.78
63395;BME280;49531;-34.520;150.798;2023-05-29T07:18:18;100674.53;;;19.49;38.19
63395;BME280;49531;-34.520;150.798;2023-05-29T07:20:45;100677.97;;;19.45;38.19
63395;BME280;49531;-34.520;150.798;2023-05-29T07:23:12;100677.94;;;19.40;38.21
63395;BME280;49531;-34.520;150.798;2023-05-29T07:25:40;100681.13;;;19.37;38.23
63395;BME280;49531;-34.520;150.798;2023-05-29T07:28:07;100685.94;;;19.29;38.45
63395;BME280;49531;-34.520;150.798;2023-05-29T07:30:34;100693.97;;;19.24;38.85
63395;BME280;49531;-34.520;150.798;2023-05-29T07:33:01;100698.41;;;19.30;38.41
63395;BME280;49531;-34.520;150.798;2023-05-29T07:35:28;100705.88;;;19.23;38.88
63395;BME280;49531;-34.520;150.798;2023-05-29T07:37:55;100706.94;;;19.22;38.77
63395;BME280;49531;-34.520;150.798;2023-05-29T07:40:22;100715.59;;;19.19;38.75
63395;BME280;49531;-34.520;150.798;2023-05-29T07:42:49;100728.63;;;19.22;38.77
63395;BME280;49531;-34.520;150.798;2023-05-29T07:45:16;100734.03;;;19.22;38.73
63395;BME280;49531;-34.520;150.798;2023-05-29T07:47:43;100753.25;;;19.21;39.34
63395;BME280;49531;-34.520;150.798;2023-05-29T07:50:11;100734.03;;;19.22;38.78
63395;BME280;49531;-34.520;150.798;2023-05-29T07:52:39;100762.50;;;19.25;38.66
63395;BME280;49531;-34.520;150.798;2023-05-29T07:55:06;100729.13;;;19.19;38.71
63395;BME280;49531;-34.520;150.798;2023-05-29T07:57:33;100743.88;;;19.28;39.07
63395;BME280;49531;-34.520;150.798;2023-05-29T08:00:01;100741.72;;;19.30;39.24
63395;BME280;49531;-34.520;150.798;2023-05-29T08:02:35;100719.94;;;19.20;39.20
63395;BME280;49531;-34.520;150.798;2023-05-29T08:05:04;100760.06;;;19.45;39.12
63395;BME280;49531;-34.520;150.798;2023-05-29T08:07:31;100747.47;;;19.34;39.28
63395;BME280;49531;-34.520;150.798;2023-05-29T08:09:59;100748.59;;;19.38;39.39
63395;BME280;49531;-34.520;150.798;2023-05-29T08:12:26;100754.59;;;19.40;39.26
63395;BME280;49531;-34.520;150.798;2023-05-29T08:14:53;100773.28;;;19.42;39.50
63395;BME280;49531;-34.520;150.798;2023-05-29T08:17:20;100793.41;;;19.46;39.52
63395;BME280;49531;-34.520;150.798;2023-05-29T08:19:47;100785.00;;;19.47;39.55
63395;BME280;49531;-34.520;150.798;2023-05-29T08:22:15;100784.50;;;19.50;39.51
63395;BME280;49531;-34.520;150.798;2023-05-29T08:24:42;100777.63;;;19.43;39.70
63395;BME280;49531;-34.520;150.798;2023-05-29T08:27:09;100796.66;;;19.48;39.65
63395;BME280;49531;-34.520;150.798;2023-05-29T08:29:36;100812.47;;;19.51;39.58
63395;BME280;49531;-34.520;150.798;2023-05-29T08:32:04;100806.19;;;19.50;39.67
63395;BME280;49531;-34.520;150.798;2023-05-29T08:34:32;100805.63;;;19.48;39.38
63395;BME280;49531;-34.520;150.798;2023-05-29T08:36:59;100819.97;;;19.49;39.49
63395;BME280;49531;-34.520;150.798;2023-05-29T08:39:26;100811.84;;;19.49;39.63
63395;BME280;49531;-34.520;150.798;2023-05-29T08:42:01;100806.44;;;19.49;39.60
63395;BME280;49531;-34.520;150.798;2023-05-29T08:44:33;100804.22;;;19.46;39.54
63395;BME280;49531;-34.520;150.798;2023-05-29T08:47:03;100805.03;;;19.46;39.55
63395;BME280;49531;-34.520;150.798;2023-05-29T08:49:40;100808.31;;;19.48;39.60
63395;BME280;49531;-34.520;150.798;2023-05-29T08:52:14;100833.06;;;19.52;39.48
63395;BME280;49531;-34.520;150.798;2023-05-29T08:54:44;100835.75;;;19.52;39.70
63395;BME280;49531;-34.520;150.798;2023-05-29T08:57:11;100833.78;;;19.47;39.66
63395;BME280;49531;-34.520;150.798;2023-05-29T08:59:43;100835.59;;;19.42;39.76
63395;BME280;49531;-34.520;150.798;2023-05-29T09:02:11;100850.28;;;19.46;39.74
63395;BME280;49531;-34.520;150.798;2023-05-29T09:04:41;100858.50;;;19.51;39.71
63395;BME280;49531;-34.520;150.798;2023-05-29T09:07:12;100868.75;;;19.49;39.94
63395;BME280;49531;-34.520;150.798;2023-05-29T09:09:40;100879.25;;;19.45;39.93
63395;BME280;49531;-34.520;150.798;2023-05-29T09:12:08;100858.00;;;19.37;39.90
63395;BME280;49531;-34.520;150.798;2023-05-29T09:14:37;100887.63;;;19.44;40.03
63395;BME280;49531;-34.520;150.798;2023-05-29T09:17:06;100889.78;;;19.42;40.15
63395;BME280;49531;-34.520;150.798;2023-05-29T09:19:35;100888.88;;;19.36;39.94
63395;BME280;49531;-34.520;150.798;2023-05-29T09:22:05;100900.03;;;19.40;40.01
63395;BME280;49531;-34.520;150.798;2023-05-29T09:24:35;100892.56;;;19.30;39.98
63395;BME280;49531;-34.520;150.798;2023-05-29T09:27:04;100915.13;;;19.36;40.14
63395;BME280;49531;-34.520;150.798;2023-05-29T09:29:38;100939.00;;;19.39;40.08
63395;BME280;49531;-34.520;150.798;2023-05-29T09:32:07;100908.16;;;19.23;40.14
63395;BME280;49531;-34.520;150.798;2023-05-29T09:34:35;100926.22;;;19.34;40.33
63395;BME280;49531;-34.520;150.798;2023-05-29T09:37:05;100929.16;;;19.32;40.08
63395;BME280;49531;-34.520;150.798;2023-05-29T09:39:45;100939.19;;;19.32;40.46
63395;BME280;49531;-34.520;150.798;2023-05-29T09:42:15;100922.13;;;19.15;40.47
63395;BME280;49531;-34.520;150.798;2023-05-29T09:44:49;100942.63;;;19.27;40.57
63395;BME280;49531;-34.520;150.798;2023-05-29T09:47:18;100939.91;;;19.27;40.42
63395;BME280;49531;-34.520;150.798;2023-05-29T09:49:46;100941.16;;;19.20;40.57
63395;BME280;49531;-34.520;150.798;2023-05-29T09:52:14;100943.13;;;19.24;40.65
63395;BME280;49531;-34.520;150.798;2023-05-29T09:54:42;100974.53;;;19.25;40.61
63395;BME280;49531;-34.520;150.798;2023-05-29T09:57:13;100978.31;;;19.24;40.65
63395;BME280;49531;-34.520;150.798;2023-05-29T09:59:44;100971.50;;;19.22;40.58
63395;BME280;49531;-34.520;150.798;2023-05-29T10:02:14;100976.63;;;19.18;40.51
63395;BME280;49531;-34.520;150.798;2023-05-29T10:04:42;100980.16;;;19.19;40.76
63395;BME280;49531;-34.520;150.798;2023-05-29T10:07:26;100964.97;;;19.18;40.84
63395;BME280;49531;-34.520;150.798;2023-05-29T10:09:59;100958.56;;;19.07;40.74
63395;BME280;49531;-34.520;150.798;2023-05-29T10:12:36;100978.09;;;19.09;40.98
63395;BME280;49531;-34.520;150.798;2023-05-29T10:15:11;100962.00;;;19.03;40.75
63395;BME280;49531;-34.520;150.798;2023-05-29T10:17:49;100978.56;;;19.06;40.85
63395;BME280;49531;-34.520;150.798;2023-05-29T10:20:18;100980.69;;;19.04;40.74
63395;BME280;49531;-34.520;150.798;2023-05-29T10:22:49;100990.47;;;19.05;40.85
63395;BME280;49531;-34.520;150.798;2023-05-29T10:25:18;100981.28;;;19.06;40.81
63395;BME280;49531;-34.520;150.798;2023-05-29T10:27:48;100986.84;;;18.99;40.90
63395;BME280;49531;-34.520;150.798;2023-05-29T10:30:25;100998.00;;;19.03;40.80
63395;BME280;49531;-34.520;150.798;2023-05-29T10:33:08;100996.25;;;18.97;40.60
63395;BME280;49531;-34.520;150.798;2023-05-29T10:35:43;100981.25;;;18.89;40.62
63395;BME280;49531;-34.520;150.798;2023-05-29T10:38:14;101003.47;;;18.91;40.64
63395;BME280;49531;-34.520;150.798;2023-05-29T10:40:43;100997.72;;;18.88;40.65
63395;BME280;49531;-34.520;150.798;2023-05-29T10:43:30;101001.97;;;18.84;40.62
63395;BME280;49531;-34.520;150.798;2023-05-29T10:46:00;101021.50;;;18.86;40.64
63395;BME280;49531;-34.520;150.798;2023-05-29T10:48:36;101023.63;;;18.84;40.70
63395;BME280;49531;-34.520;150.798;2023-05-29T10:51:06;101031.16;;;18.82;40.66
63395;BME280;49531;-34.520;150.798;2023-05-29T10:53:35;101022.16;;;18.76;40.58
63395;BME280;49531;-34.520;150.798;2023-05-29T10:56:08;101038.84;;;18.73;40.66
63395;BME280;49531;-34.520;150.798;2023-05-29T10:58:41;101038.69;;;18.80;40.65
63395;BME280;49531;-34.520;150.798;2023-05-29T11:01:09;101026.06;;;18.69;40.58
63395;BME280;49531;-34.520;150.798;2023-05-29T11:03:36;101037.78;;;18.74;40.56
63395;BME280;49531;-34.520;150.798;2023-05-29T11:06:07;101016.88;;;18.58;40.80
63395;BME280;49531;-34.520;150.798;2023-05-29T11:08:47;101030.16;;;18.71;40.54
63395;BME280;49531;-34.520;150.798;2023-05-29T11:11:33;101036.03;;;18.68;40.53
63395;BME280;49531;-34.520;150.798;2023-05-29T11:14:05;101049.00;;;18.66;40.65
63395;BME280;49531;-34.520;150.798;2023-05-29T11:16:37;101045.13;;;18.62;40.54
63395;BME280;49531;-34.520;150.798;2023-05-29T11:19:06;101049.09;;;18.59;40.42
63395;BME280;49531;-34.520;150.798;2023-05-29T11:21:59;101051.59;;;18.61;40.61
63395;BME280;49531;-34.520;150.798;2023-05-29T11:24:32;101041.69;;;18.55;40.50
63395;BME280;49531;-34.520;150.798;2023-05-29T11:27:03;101053.69;;;18.59;40.51
63395;BME280;49531;-34.520;150.798;2023-05-29T11:29:35;101044.41;;;18.55;40.60
63395;BME280;49531;-34.520;150.798;2023-05-29T11:32:05;101042.28;;;18.45;40.48
63395;BME280;49531;-34.520;150.798;2023-05-29T11:34:40;101043.94;;;18.46;40.60
63395;BME280;49531;-34.520;150.798;2023-05-29T11:37:07;101036.06;;;18.45;40.57
63395;BME280;49531;-34.520;150.798;2023-05-29T11:39:36;101034.91;;;18.41;40.73
63395;BME280;49531;-34.520;150.798;2023-05-29T11:42:04;101031.94;;;18.42;40.77
63395;BME280;49531;-34.520;150.798;2023-05-29T11:44:32;100996.63;;;18.20;40.48
63395;BME280;49531;-34.520;150.798;2023-05-29T11:47:03;101029.75;;;18.39;40.59
63395;BME280;49531;-34.520;150.798;2023-05-29T11:49:31;101025.28;;;18.33;40.66
63395;BME280;49531;-34.520;150.798;2023-05-29T11:52:09;101016.84;;;18.29;40.83
63395;BME280;49531;-34.520;150.798;2023-05-29T11:54:36;101008.38;;;18.26;40.68
63395;BME280;49531;-34.520;150.798;2023-05-29T11:57:04;101004.38;;;18.28;40.40
63395;BME280;49531;-34.520;150.798;2023-05-29T11:59:32;101004.84;;;18.25;40.59
63395;BME280;49531;-34.520;150.798;2023-05-29T12:02:02;101006.63;;;18.20;40.65
63395;BME280;49531;-34.520;150.798;2023-05-29T12:04:30;101012.72;;;18.15;40.79
63395;BME280;49531;-34.520;150.798;2023-05-29T12:06:57;101032.59;;;18.21;40.61
63395;BME280;49531;-34.520;150.798;2023-05-29T12:09:27;101053.41;;;18.20;40.64
63395;BME280;49531;-34.520;150.798;2023-05-29T12:12:02;101056.00;;;18.15;40.77
63395;BME280;49531;-34.520;150.798;2023-05-29T12:14:29;101042.81;;;18.07;40.81
63395;BME280;49531;-34.520;150.798;2023-05-29T12:16:56;101051.75;;;18.08;40.73
63395;BME280;49531;-34.520;150.798;2023-05-29T12:19:24;101033.19;;;17.99;40.78
63395;BME280;49531;-34.520;150.798;2023-05-29T12:21:51;101058.81;;;18.09;40.77
63395;BME280;49531;-34.520;150.798;2023-05-29T12:24:19;101065.75;;;18.05;40.81
63395;BME280;49531;-34.520;150.798;2023-05-29T12:26:46;101084.78;;;18.10;40.81
63395;BME280;49531;-34.520;150.798;2023-05-29T12:29:14;101077.53;;;17.98;40.82
63395;BME280;49531;-34.520;150.798;2023-05-29T12:31:41;101065.06;;;17.97;40.92
63395;BME280;49531;-34.520;150.798;2023-05-29T12:34:11;101074.31;;;18.02;40.99